Friday, January 18, 2019, 2:44 AM EST
Back to Local

KMMU, Morristown Municipal

Location: Morristown, NJ, United States Lat: 40.8
Local Time: 2:44 AM EST ( 7:44 GMT) Lon: -74.417
Time Zone: US/Eastern Elev: 187 ft

Show me the last for .
Show Coded

Time T Td Feel RH Dir Speed Gust Alt SLP Vis Weather Sky Remarks
2019-01-18 02:15 27 25 - 92 - Calm - 30.18 - 4 -SN SCT021 BKN041 OVC048 None
2019-01-18 01:55 27 27 - 100 - Calm - 30.18 - 3 -SN BKN023 BKN030 OVC050 None
2019-01-18 01:35 27 27 - 100 - Calm - 30.19 - 2 -SN SCT034 OVC050 None
2019-01-18 01:15 27 27 - 100 - Calm - 30.19 - 2 -SN SCT028 BKN034 OVC050 None
2019-01-18 00:55 27 25 - 92 - Calm - 30.20 - 1 -SN OVC032 None
2019-01-18 00:35 27 25 - 92 - Calm - 30.21 - 4 -SN SCT034 BKN047 OVC060 None
2019-01-18 00:15 27 25 - 92 - Calm - 30.21 - 4 -SN SCT028 SCT036 OVC050 None
2019-01-17 23:55 27 25 - 92 - Calm - 30.22 - 2 -SN SCT028 BKN033 OVC055 None
2019-01-17 23:35 28 25 - 86 - Calm - 30.23 - 3 -SN SCT027 BKN041 OVC055 None
2019-01-17 23:15 28 23 25 79 360° 3 - 30.24 - 2 -SN SCT023 BKN029 OVC045 None
2019-01-17 22:55 28 21 - 74 - Calm - 30.24 - 7 -SN BKN035 BKN045 OVC050 None
2019-01-17 22:35 28 21 - 74 - Calm - 30.24 - 10 -SN BKN035 BKN043 OVC060 None
2019-01-17 22:15 30 19 - 63 - Calm - 30.24 - 10 SCT060 OVC070 None
2019-01-17 21:45 28 21 25 74 10° 3 - 30.25 - 10 SCT050 BKN065 OVC090 None
2019-01-17 20:45 28 19 25 68 160° 3 - 30.27 - 10 OVC120 None
2019-01-17 19:50 28 19 25 68 160° 3 - 30.30 - 10 OVC110 None
2019-01-17 18:45 28 16 23 58 190° 5 - 30.31 - 10 OVC120 None
2019-01-17 17:45 28 16 20 58 190° 8 - 30.31 - 10 CLR None
2019-01-17 16:45 30 18 25 58 160° 5 - 30.30 - 10 BKN110 None
2019-01-17 15:45 30 9 23 39 130° 8 - 30.30 - 10 BKN120 None
2019-01-17 14:45 30 10 - 42 - Calm - 30.32 - 10 BKN120 None
2019-01-17 13:50 30 9 - 39 - Calm - 30.34 - 10 BKN250 None
2019-01-17 12:45 28 7 23 39 130° 5 - 30.36 - 10 FEW170 BKN250 None
2019-01-17 12:28 30 10 27 42 70° 3 - 30.40 - 10 FEW170 BKN250 None
2019-01-17 11:45 30 10 27 42 70° 3 - 30.40 - 10 FEW170 BKN250 None
2019-01-17 10:50 27 12 23 53 60° 3 - 30.43 - 10 FEW150 BKN250 None
2019-01-17 09:45 27 12 21 53 70° 5 - 30.43 - 10 SCT150 BKN250 None
2019-01-17 08:45 25 12 17 58 10° 7 - 30.42 - 10 SCT150 BKN250 None
2019-01-17 07:45 23 12 15 62 10° 7 - 30.40 - 10 SCT150 BKN250 None
2019-01-17 06:45 21 12 15 67 40° 5 - 30.38 - 10 BKN200 None
2019-01-17 06:35 23 9 - 53 - Calm - 30.36 - 10 CLR None
2019-01-17 06:15 23 9 18 53 70° 3 - 30.36 - 10 CLR None
2019-01-17 05:55 23 10 - 57 - Calm - 30.35 - 10 CLR None
2019-01-17 05:35 23 9 - 53 - Calm - 30.34 - 10 CLR None
2019-01-17 05:15 25 9 17 49 330° 7 - 30.34 - 10 CLR None
2019-01-17 04:55 25 9 20 49 320° 3 - 30.33 - 10 CLR None
2019-01-17 04:35 25 9 15 49 350° 10 - 30.32 - 10 CLR None
2019-01-17 04:10 25 7 20 45 350° 3 - 30.32 - 10 CLR None
2019-01-17 03:55 25 7 16 45 330° 8 - 30.31 - 10 CLR None
2019-01-17 03:35 25 7 15 45 320° 10 - 30.32 - 10 CLR None
2019-01-17 03:15 25 5 17 41 320° 7 - 30.31 - 10 CLR None
2019-01-17 02:55 27 3 19 35 330° 7 - 30.31 - 10 CLR None

Support USWX by starting your Amazon purchase here.